Cohasset, Massachusetts
Current Conditions -  °F | °C
As of 9:30 AM on Wednesday 22 Oct 2014 (Local Time) from KGHG Reporting Station
Haze Haze  
Wind Chill: 55°   Ceiling: 700
Heat Index: 55°   Visibility: 5mi
Dew Point: 55°   Wind: 13mph
Humidity: 100%   Direction: 40°NE
Pressure: 30"   Gusts: 24mph
Location:  42.24°N, 70.8°W
Report Text: KGHG 221330Z AUTO 04011G21KT 350V360 5SM BR OVC007 13/13 A3000 RMK AO2
Loading
Personal Weather Stations






























Interactive Weather Map
Tropical Storm Tracking
New forecast layout! Learn more

10-Day Weather Forecast

Advertisements
Track Severe Weather on mobile